Time;durP1;ratioP1;P1;durP2;ratioP2;P2;SDS_P1;SDS_P2;PMS_P1;PMS_P2;Temp;Humidity;BMP_temperature;BMP_pressure;BME280_temperature;BME280_humidity;BME280_pressure;Samples;Min_cycle;Max_cycle;Signal;HPM_P1;HPM_P2
2022/05/10 00:01:37;;;;;;;13.43;3.47;;;10.30;99.90;;;;;;4811053;29;20046;-77
2022/05/10 00:04:05;;;;;;;7.28;2.92;;;10.30;99.90;;;;;;4827213;29;20030;-76
2022/05/10 00:06:41;;;;;;;9.38;3.15;;;10.20;99.90;;;;;;4811031;29;20049;-76
2022/05/10 00:09:08;;;;;;;5.85;3.47;;;10.10;99.90;;;;;;4827843;29;20030;-76
2022/05/10 00:11:35;;;;;;;9.30;3.10;;;10.20;99.90;;;;;;4827399;29;20054;-76
2022/05/10 00:14:00;;;;;;;11.68;3.85;;;10.10;99.90;;;;;;4811292;29;20026;-76
2022/05/10 00:16:26;;;;;;;7.30;3.13;;;10.10;99.90;;;;;;4825958;29;20106;-76
2022/05/10 00:18:52;;;;;;;5.30;2.70;;;10.00;99.90;;;;;;4827668;29;20047;-78
2022/05/10 00:21:23;;;;;;;7.30;3.30;;;10.00;99.90;;;;;;4827664;29;20032;-76
2022/05/10 00:23:50;;;;;;;7.82;3.22;;;10.00;99.90;;;;;;4841659;29;20022;-76
2022/05/10 00:26:16;;;;;;;5.47;3.08;;;9.90;99.90;;;;;;4827366;29;20052;-76
2022/05/10 00:28:41;;;;;;;6.18;3.13;;;9.90;99.90;;;;;;4827649;29;20863;-77
2022/05/10 00:31:11;;;;;;;6.38;2.90;;;9.80;99.90;;;;;;4810935;29;20121;-77
2022/05/10 00:33:37;;;;;;;11.32;4.75;;;9.80;99.90;;;;;;4827972;29;20517;-75
2022/05/10 00:36:04;;;;;;;11.55;3.95;;;9.80;99.90;;;;;;4829257;29;20719;-76
2022/05/10 00:38:41;;;;;;;5.97;3.05;;;9.80;99.90;;;;;;4834950;29;20807;-76
2022/05/10 00:41:24;;;;;;;11.05;3.38;;;9.80;99.90;;;;;;4836258;29;20062;-76
2022/05/10 00:43:58;;;;;;;5.35;2.38;;;9.80;99.90;;;;;;4836755;29;20025;-76
2022/05/10 00:46:34;;;;;;;10.50;3.50;;;9.70;99.90;;;;;;4838033;29;20086;-76
2022/05/10 00:49:25;;;;;;;5.45;2.42;;;9.70;99.90;;;;;;4834686;29;20406;-77
2022/05/10 00:52:03;;;;;;;17.27;3.65;;;9.70;99.90;;;;;;4832570;29;20027;-76
2022/05/10 02:51:36;;;;;;;11.15;3.92;;;;;;;;;;4828455;29;20742;-76
2022/05/10 02:54:01;;;;;;;7.75;3.08;;;7.80;99.90;;;;;;4812485;29;20030;-77
2022/05/10 02:56:28;;;;;;;10.77;4.05;;;8.50;99.90;;;;;;4812371;29;20025;-79
2022/05/10 02:59:06;;;;;;;10.10;3.35;;;8.50;99.90;;;;;;4827793;29;20041;-77
2022/05/10 03:01:52;;;;;;;9.10;2.78;;;8.50;99.90;;;;;;4828686;29;20038;-77
2022/05/10 03:04:18;;;;;;;10.75;3.38;;;8.50;99.90;;;;;;4828666;29;20041;-76
2022/05/10 03:06:46;;;;;;;6.45;2.53;;;8.50;99.90;;;;;;4829015;29;20021;-79
2022/05/10 03:09:12;;;;;;;8.27;3.63;;;8.50;99.90;;;;;;4829009;29;20078;-77
2022/05/10 03:11:38;;;;;;;9.20;3.45;;;8.50;99.90;;;;;;4829076;29;20222;-78
2022/05/10 03:14:06;;;;;;;7.55;2.92;;;8.50;99.90;;;;;;4812300;29;20294;-76
2022/05/10 03:16:32;;;;;;;7.40;3.53;;;8.40;99.90;;;;;;4828649;29;20037;-76
2022/05/10 03:18:58;;;;;;;8.00;3.72;;;8.40;99.90;;;;;;4812391;29;20030;-78
2022/05/10 03:21:24;;;;;;;5.30;2.50;;;8.40;99.90;;;;;;4829967;29;20038;-75
2022/05/10 03:23:51;;;;;;;7.45;2.67;;;8.40;99.90;;;;;;4828935;29;20498;-77
2022/05/10 03:26:26;;;;;;;6.30;3.05;;;8.40;99.90;;;;;;4829834;29;20466;-78
2022/05/10 03:28:52;;;;;;;12.75;5.00;;;8.30;99.90;;;;;;4829230;29;20026;-76
2022/05/10 03:31:20;;;;;;;3.53;2.20;;;8.30;99.90;;;;;;4829668;29;20060;-76
2022/05/10 03:34:53;;;;;;;7.97;2.97;;;6.50;99.90;;;;;;4830175;29;20030;-76
2022/05/10 03:36:31;;;;;;;9.80;3.97;;;8.30;99.90;;;;;;4829416;29;20610;-76
2022/05/10 03:38:57;;;;;;;6.30;3.00;;;8.30;99.90;;;;;;4813239;29;20029;-76
2022/05/10 03:41:22;;;;;;;8.15;2.58;;;8.30;99.90;;;;;;4828575;29;20759;-76
2022/05/10 03:43:48;;;;;;;10.18;3.75;;;7.00;99.90;;;;;;4830944;29;20578;-76
2022/05/10 03:46:13;;;;;;;8.23;2.85;;;8.30;99.90;;;;;;4832215;29;20066;-78
2022/05/10 03:48:39;;;;;;;6.50;2.97;;;8.20;99.90;;;;;;4814556;29;20033;-77
2022/05/10 04:06:38;;;;;;;8.55;2.80;;;8.30;99.90;;;;;;5188527;23;20108;-78
2022/05/10 04:09:04;;;;;;;16.88;3.13;;;8.30;99.90;;;;;;4864099;29;20628;-77
2022/05/10 04:11:30;;;;;;;7.97;3.00;;;8.20;99.90;;;;;;4865570;29;20032;-77
2022/05/10 04:13:56;;;;;;;13.50;3.78;;;8.40;99.90;;;;;;4866856;29;20024;-77
2022/05/10 04:16:22;;;;;;;7.43;3.00;;;8.40;99.90;;;;;;4866371;29;20643;-77
2022/05/10 04:18:48;;;;;;;8.57;4.10;;;8.40;99.90;;;;;;4883624;29;20032;-80
2022/05/10 04:21:14;;;;;;;8.63;2.97;;;8.40;99.90;;;;;;4866299;29;20045;-80
2022/05/10 04:23:40;;;;;;;6.93;2.92;;;8.50;99.90;;;;;;4883440;29;20072;-76
2022/05/10 04:26:08;;;;;;;8.60;3.47;;;8.50;99.90;;;;;;4883488;29;20028;-79
2022/05/10 04:28:35;;;;;;;10.63;4.07;;;8.50;99.90;;;;;;4866699;29;20082;-77
2022/05/10 04:31:01;;;;;;;5.20;2.58;;;;;;;;;;4883576;29;20032;-78
2022/05/10 04:33:27;;;;;;;6.50;2.70;;;8.50;99.90;;;;;;4883381;29;20586;-76
2022/05/10 04:35:53;;;;;;;11.13;3.88;;;8.50;99.90;;;;;;4882669;29;20037;-75
2022/05/10 04:38:19;;;;;;;7.32;3.20;;;8.50;99.90;;;;;;4882531;29;20084;-77
2022/05/10 04:43:31;;;;;;;7.05;3.30;;;8.50;99.90;;;;;;4883298;29;20130;-75
2022/05/10 04:45:56;;;;;;;7.82;4.30;;;8.50;99.90;;;;;;4866227;29;20660;-76
2022/05/10 04:48:22;;;;;;;9.32;3.65;;;8.50;99.90;;;;;;4865862;29;20033;-79
2022/05/10 04:50:48;;;;;;;11.77;5.35;;;8.60;99.90;;;;;;4882675;29;20044;-76
2022/05/10 04:53:14;;;;;;;10.95;6.35;;;8.70;99.90;;;;;;4882658;29;20033;-78
2022/05/10 04:55:40;;;;;;;12.15;6.72;;;8.70;99.90;;;;;;4882759;29;20024;-76
2022/05/10 04:58:06;;;;;;;9.40;5.22;;;8.70;99.90;;;;;;4882865;29;20672;-78
2022/05/10 05:00:31;;;;;;;10.07;3.42;;;8.90;99.90;;;;;;4882705;29;20091;-78
2022/05/10 05:02:57;;;;;;;7.88;3.80;;;9.00;99.90;;;;;;4882497;29;20243;-77
2022/05/10 05:05:23;;;;;;;7.60;3.67;;;9.10;99.90;;;;;;4882790;29;20128;-77
2022/05/10 05:07:49;;;;;;;10.85;3.85;;;9.20;99.90;;;;;;4882801;29;20037;-75
2022/05/10 05:10:14;;;;;;;6.32;3.28;;;9.20;99.90;;;;;;4882243;29;20182;-76
2022/05/10 05:12:40;;;;;;;7.05;3.08;;;9.30;99.90;;;;;;4865955;29;20700;-75
2022/05/10 05:15:09;;;;;;;5.00;2.95;;;9.40;99.90;;;;;;4882409;29;20275;-75
2022/05/10 05:17:35;;;;;;;9.60;3.22;;;9.50;99.90;;;;;;4883218;29;20031;-79
2022/05/10 05:22:36;;;;;;;8.48;3.03;;;9.60;99.90;;;;;;4155602;27;20058;-75
2022/05/10 05:25:04;;;;;;;9.35;3.42;;;9.70;99.90;;;;;;4848575;29;20422;-77
2022/05/10 05:27:30;;;;;;;7.47;3.20;;;9.90;99.90;;;;;;4832385;29;20117;-79
2022/05/10 05:29:55;;;;;;;7.82;2.83;;;10.00;99.90;;;;;;4832676;29;20502;-79
2022/05/10 05:32:40;;;;;;;5.75;2.38;;;10.10;99.90;;;;;;4848295;29;20108;-78
2022/05/10 05:35:06;;;;;;;10.18;4.30;;;10.30;99.90;;;;;;4848825;29;20518;-75
2022/05/10 05:37:38;;;;;;;14.30;3.83;;;10.30;99.90;;;;;;4832945;29;20026;-76
2022/05/10 06:05:57;;;;;;;8.30;3.50;;;11.70;99.90;;;;;;5760847;23;20019;-76
2022/05/10 06:08:23;;;;;;;7.03;3.70;;;11.70;99.90;;;;;;4865043;29;20049;-76
2022/05/10 06:10:50;;;;;;;7.63;3.50;;;;;;;;;;4865713;29;20032;-77
2022/05/10 06:13:20;;;;;;;8.45;3.90;;;11.90;99.90;;;;;;4864382;29;20730;-78
2022/05/10 06:15:46;;;;;;;11.45;3.65;;;12.10;99.90;;;;;;4864496;29;20065;-79
2022/05/10 06:18:12;;;;;;;7.63;3.13;;;12.30;99.90;;;;;;4877099;29;20028;-75
2022/05/10 06:20:44;;;;;;;8.10;4.72;;;12.50;99.50;;;;;;4883583;29;20021;-76
2022/05/10 06:23:09;;;;;;;7.57;4.35;;;10.80;99.20;;;;;;4884369;29;20112;-77
2022/05/10 06:25:36;;;;;;;11.63;4.93;;;12.70;98.70;;;;;;4867365;29;20135;-78
2022/05/10 06:28:05;;;;;;;6.53;3.65;;;12.80;98.20;;;;;;4883815;29;20083;-77
2022/05/10 06:30:31;;;;;;;8.10;3.72;;;13.00;97.70;;;;;;4883530;29;20020;-78
2022/05/10 06:32:58;;;;;;;14.05;4.72;;;13.10;97.40;;;;;;4883207;29;20032;-78
2022/05/10 06:35:25;;;;;;;16.35;4.50;;;13.30;97.00;;;;;;4883469;29;20108;-79
2022/05/10 06:40:35;;;;;;;8.25;4.53;;;13.40;96.60;;;;;;4884379;29;20128;-77
2022/05/10 06:43:01;;;;;;;14.63;5.15;;;13.50;96.20;;;;;;4884319;29;20120;-77
2022/05/10 06:45:30;;;;;;;7.40;4.38;;;13.70;96.20;;;;;;4885370;29;20023;-76
2022/05/10 06:47:56;;;;;;;11.40;4.63;;;13.70;96.00;;;;;;4885409;29;20039;-79
2022/05/10 07:18:59;;;;;;;9.63;4.43;;;15.10;93.30;;;;;;5412672;23;20835;-75
2022/05/10 07:21:24;;;;;;;13.27;3.83;;;15.10;93.60;;;;;;4870282;29;20072;-79
2022/05/10 07:23:55;;;;;;;10.45;4.22;;;15.20;93.40;;;;;;4866037;29;20103;-78
2022/05/10 07:26:20;;;;;;;13.95;4.93;;;15.40;93.10;;;;;;4882477;29;20024;-77
2022/05/10 07:28:46;;;;;;;18.35;4.97;;;15.50;92.90;;;;;;4863054;29;20029;-79
2022/05/10 07:31:12;;;;;;;11.65;3.67;;;15.60;92.70;;;;;;4848267;29;20575;-77
2022/05/10 07:33:38;;;;;;;12.05;4.15;;;15.70;92.40;;;;;;4850158;29;20027;-78
2022/05/10 07:38:48;;;;;;;8.60;4.00;;;16.00;91.50;;;;;;4864529;29;20647;-78
2022/05/10 07:41:18;;;;;;;9.05;3.72;;;16.00;91.70;;;;;;4864400;29;20064;-85
2022/05/10 07:43:56;;;;;;;9.38;3.30;;;16.20;91.30;;;;;;4854601;29;20124;-80
2022/05/10 07:46:50;;;;;;;9.05;3.15;;;16.30;91.10;;;;;;4861321;29;20037;-79
2022/05/10 07:49:22;;;;;;;6.80;3.20;;;16.50;90.30;;;;;;4806145;29;20061;-78
2022/05/10 08:06:03;;;;;;;9.93;3.63;;;17.10;88.40;;;;;;4807052;29;20600;-77
2022/05/10 08:24:12;;;;;;;14.85;3.92;;;17.90;86.70;;;;;;4861604;29;20289;-77
2022/05/10 08:26:38;;;;;;;10.50;4.13;;;18.10;85.40;;;;;;4863459;29;20476;-80
2022/05/10 08:29:03;;;;;;;7.25;3.15;;;17.20;84.80;;;;;;4863466;29;20029;-75
2022/05/10 08:31:29;;;;;;;8.25;5.22;;;18.30;84.60;;;;;;4863683;29;20059;-76
2022/05/10 08:33:55;;;;;;;13.48;4.50;;;18.50;85.50;;;;;;4863447;29;20052;-75
2022/05/10 08:36:22;;;;;;;8.50;3.75;;;18.70;83.90;;;;;;4863318;29;20021;-76
2022/05/10 08:38:48;;;;;;;7.90;3.45;;;18.60;83.40;;;;;;4863017;29;20036;-80
2022/05/10 08:41:26;;;;;;;12.23;5.05;;;18.80;83.10;;;;;;4863384;29;20029;-77
2022/05/10 08:44:12;;;;;;;9.30;3.03;;;18.90;82.60;;;;;;4863630;29;20057;-76
2022/05/10 08:46:42;;;;;;;10.65;4.55;;;19.00;81.60;;;;;;4863725;29;20763;-81
2022/05/10 08:49:22;;;;;;;15.88;5.30;;;19.00;82.30;;;;;;4863924;29;20078;-74
2022/05/10 08:51:48;;;;;;;8.98;4.63;;;19.20;81.70;;;;;;4863334;29;20581;-75
2022/05/10 08:54:17;;;;;;;14.52;4.80;;;19.30;82.20;;;;;;4846846;29;20045;-76
2022/05/10 08:57:02;;;;;;;7.20;3.83;;;19.40;81.00;;;;;;4863914;29;20033;-76
2022/05/10 08:59:32;;;;;;;11.30;4.15;;;19.50;79.80;;;;;;4867569;29;20024;-82
2022/05/10 09:02:09;;;;;;;18.10;5.32;;;19.60;80.00;;;;;;4866707;29;20029;-77
2022/05/10 09:04:43;;;;;;;10.13;4.45;;;19.60;80.20;;;;;;4850449;29;20025;-78
2022/05/10 09:07:35;;;;;;;11.68;4.85;;;19.80;80.30;;;;;;4867018;29;20100;-83
2022/05/10 09:10:04;;;;;;;10.52;3.67;;;19.90;79.90;;;;;;4791355;29;20038;-81
2022/05/10 09:12:44;;;;;;;12.70;5.65;;;20.10;78.30;;;;;;4773264;30;20035;-77
2022/05/10 09:15:13;;;;;;;12.35;6.50;;;20.00;80.20;;;;;;4772765;30;20036;-77
2022/05/10 09:17:39;;;;;;;16.48;6.07;;;21.00;80.10;;;;;;4772648;30;20031;-82
2022/05/10 09:20:07;;;;;;;13.82;5.38;;;20.10;80.90;;;;;;4772647;30;20107;-80
2022/05/10 09:22:48;;;;;;;9.95;4.53;;;20.10;79.90;;;;;;4772466;30;20220;-79
2022/05/10 09:25:20;;;;;;;12.18;4.82;;;19.90;78.70;;;;;;4772267;30;20152;-77
2022/05/10 09:27:48;;;;;;;9.23;3.58;;;19.60;79.00;;;;;;4772603;30;20054;-76
2022/05/10 09:30:32;;;;;;;10.63;4.72;;;19.50;80.50;;;;;;4772173;30;20039;-79
2022/05/10 09:36:10;;;;;;;9.05;3.50;;;19.30;82.40;;;;;;4772216;30;20115;-77
2022/05/10 09:38:45;;;;;;;9.45;4.47;;;19.20;81.00;;;;;;4772655;30;20609;-78
2022/05/10 09:41:41;;;;;;;7.45;3.17;;;19.10;80.80;;;;;;4772198;30;20051;-78
2022/05/10 09:44:25;;;;;;;10.55;4.13;;;19.00;81.30;;;;;;4772552;30;20047;-78
2022/05/10 09:47:00;;;;;;;13.80;4.35;;;18.90;83.00;;;;;;4804070;29;20042;-79
2022/05/10 09:49:29;;;;;;;11.82;5.03;;;18.80;83.30;;;;;;4831061;29;20024;-78
2022/05/10 09:51:59;;;;;;;11.00;5.43;;;18.60;83.00;;;;;;4848058;29;20607;-77
2022/05/10 09:54:36;;;;;;;8.23;4.28;;;19.10;83.30;;;;;;4847589;29;20080;-82
2022/05/10 09:57:02;;;;;;;9.63;4.30;;;19.20;80.90;;;;;;4847452;29;20022;-77
2022/05/10 09:59:47;;;;;;;8.07;3.35;;;19.10;81.70;;;;;;4848012;29;20024;-79
2022/05/10 10:02:30;;;;;;;9.13;3.28;;;19.20;81.90;;;;;;4830891;29;20876;-77
2022/05/10 10:04:56;;;;;;;8.85;3.20;;;19.30;81.50;;;;;;4847964;29;20029;-77
2022/05/10 10:07:28;;;;;;;14.20;4.07;;;19.40;81.70;;;;;;4847935;29;20025;-77
2022/05/10 10:10:11;;;;;;;8.98;3.88;;;19.30;82.50;;;;;;4832346;29;20045;-78
2022/05/10 10:12:41;;;;;;;13.10;3.88;;;19.50;83.70;;;;;;4849548;29;20026;-79
2022/05/10 10:15:42;;;;;;;6.35;2.92;;;19.80;83.30;;;;;;4848013;29;20034;-79
2022/05/10 10:18:12;;;;;;;7.20;3.40;;;20.00;83.10;;;;;;4848446;29;20101;-76
2022/05/10 10:20:53;;;;;;;10.98;4.28;;;20.20;81.70;;;;;;4847799;29;20097;-75
2022/05/10 10:23:33;;;;;;;14.23;5.00;;;20.40;80.20;;;;;;4847580;29;20048;-76
2022/05/10 10:26:23;;;;;;;13.13;4.70;;;20.60;79.70;;;;;;4847546;29;20017;-76
2022/05/10 10:29:10;;;;;;;8.18;4.15;;;21.00;79.10;;;;;;4848042;29;20108;-76
2022/05/10 10:32:02;;;;;;;14.85;5.38;;;21.00;78.40;;;;;;4830595;29;20062;-75
2022/05/10 10:34:58;;;;;;;10.82;4.30;;;21.30;77.20;;;;;;4847281;29;20705;-78
2022/05/10 10:37:34;;;;;;;10.68;4.22;;;21.50;75.70;;;;;;4847242;29;20040;-76
2022/05/10 10:40:47;;;;;;;10.15;4.15;;;21.80;76.80;;;;;;4846664;29;20190;-76
2022/05/10 10:43:31;;;;;;;11.38;4.47;;;22.10;73.80;;;;;;4807440;29;20099;-79
2022/05/10 10:46:07;;;;;;;13.30;5.13;;;22.50;71.40;;;;;;4807570;29;20023;-77
2022/05/10 10:48:48;;;;;;;13.77;6.75;;;22.70;71.20;;;;;;4807336;29;20045;-78
2022/05/10 10:51:15;;;;;;;13.30;5.70;;;23.30;69.10;;;;;;4805390;29;20034;-78
2022/05/10 10:53:43;;;;;;;10.23;5.03;;;23.30;67.60;;;;;;4789931;29;20042;-79
2022/05/10 10:56:26;;;;;;;11.73;3.95;;;23.10;68.10;;;;;;4789403;29;20034;-79
2022/05/10 10:59:05;;;;;;;10.43;4.27;;;23.30;66.50;;;;;;4789510;29;20046;-78
2022/05/10 11:01:36;;;;;;;9.52;3.60;;;23.80;66.80;;;;;;4789316;29;20054;-77
2022/05/10 11:04:33;;;;;;;8.93;3.00;;;23.40;64.20;;;;;;4789590;29;20499;-79
2022/05/10 11:07:07;;;;;;;9.40;2.75;;;23.50;58.50;;;;;;4789482;29;20043;-75
2022/05/10 11:09:44;;;;;;;6.53;2.50;;;23.20;58.90;;;;;;4789188;29;20696;-80
2022/05/10 11:13:06;;;;;;;7.65;2.92;;;23.10;58.80;;;;;;4789038;29;20038;-82
2022/05/10 11:16:03;;;;;;;7.60;3.10;;;22.80;59.60;;;;;;4771146;30;20055;-77
2022/05/10 11:19:09;;;;;;;7.10;3.22;;;22.60;62.70;;;;;;4753695;30;20070;-81
2022/05/10 11:21:34;;;;;;;6.78;2.65;;;22.50;64.20;;;;;;4752802;30;20048;-82
2022/05/10 11:24:37;;;;;;;10.02;3.60;;;22.20;63.00;;;;;;4753234;30;20683;-80
2022/05/10 11:27:18;;;;;;;6.18;2.80;;;22.00;62.70;;;;;;4753205;30;20059;-78
2022/05/10 11:30:08;;;;;;;4.90;2.47;;;21.80;62.80;;;;;;4753484;30;20048;-78
2022/05/10 11:32:41;;;;;;;8.52;2.92;;;21.80;61.90;;;;;;4753090;30;20077;-81
2022/05/10 11:35:28;;;;;;;6.55;2.08;;;21.50;61.60;;;;;;4753442;30;20044;-78
2022/05/10 11:38:08;;;;;;;5.68;2.45;;;21.70;60.10;;;;;;4752922;30;20096;-78
2022/05/10 11:41:03;;;;;;;6.05;2.70;;;21.20;58.50;;;;;;4753090;30;20064;-77
2022/05/10 11:43:42;;;;;;;6.47;2.15;;;20.60;60.00;;;;;;4753260;30;20028;-77
2022/05/10 11:46:42;;;;;;;6.55;2.13;;;20.50;59.60;;;;;;4774571;29;20074;-82
2022/05/10 11:49:37;;;;;;;17.75;3.08;;;20.20;62.80;;;;;;4791558;29;20555;-78
2022/05/10 11:52:24;;;;;;;8.70;3.20;;;20.00;63.80;;;;;;4755418;30;20119;-77
2022/05/10 11:54:49;;;;;;;11.32;3.88;;;20.00;64.70;;;;;;4770660;30;20064;-77
2022/05/10 11:57:20;;;;;;;8.10;3.17;;;20.00;65.10;;;;;;4771173;30;20032;-79
2022/05/10 11:59:46;;;;;;;7.13;2.83;;;20.00;66.40;;;;;;4770562;30;20062;-77
2022/05/10 12:02:30;;;;;;;7.22;2.90;;;20.00;67.20;;;;;;4770384;30;20127;-87
2022/05/10 12:05:10;;;;;;;7.93;3.22;;;20.00;65.90;;;;;;4770745;30;20092;-79
2022/05/10 12:07:46;;;;;;;7.88;2.72;;;19.60;63.30;;;;;;4770804;30;20039;-80
2022/05/10 12:10:34;;;;;;;8.75;1.90;;;19.50;64.10;;;;;;4770998;30;20086;-87
2022/05/10 12:13:04;;;;;;;4.03;1.85;;;19.40;63.10;;;;;;4771268;30;20031;-81
2022/05/10 12:21:22;;;;;;;9.88;2.10;;;19.10;64.80;;;;;;4771196;30;20053;-79
2022/05/10 12:24:26;;;;;;;5.43;1.40;;;18.90;66.60;;;;;;4770878;30;20126;-79
2022/05/10 12:26:59;;;;;;;3.83;1.65;;;18.80;63.10;;;;;;4771033;30;20032;-78
2022/05/10 12:29:40;;;;;;;10.85;2.33;;;18.60;59.70;;;;;;4820468;29;20680;-83
2022/05/10 12:32:33;;;;;;;12.55;3.28;;;18.50;61.60;;;;;;4832097;29;20060;-78
2022/05/10 12:35:04;;;;;;;7.28;2.25;;;18.80;62.00;;;;;;4846088;29;20113;-79
2022/05/10 12:37:33;;;;;;;15.85;3.08;;;18.40;62.60;;;;;;4844862;29;20253;-80
2022/05/10 12:40:04;;;;;;;3.95;1.63;;;18.40;62.70;;;;;;4852224;29;20037;-81
2022/05/10 12:43:15;;;;;;;9.57;2.08;;;18.40;62.20;;;;;;4832398;29;20034;-79
2022/05/10 12:46:23;;;;;;;6.45;2.13;;;18.40;63.70;;;;;;4845119;29;20037;-83
2022/05/10 12:48:54;;;;;;;8.25;1.83;;;18.30;65.20;;;;;;4831560;29;20721;-78
2022/05/10 12:51:38;;;;;;;7.22;1.90;;;18.40;66.40;;;;;;4831258;29;20033;-85
2022/05/10 12:54:07;;;;;;;4.50;1.70;;;18.40;66.40;;;;;;4830825;29;20085;-79
2022/05/10 12:56:40;;;;;;;11.68;2.42;;;18.40;66.60;;;;;;4844736;29;20041;-77
2022/05/10 12:59:17;;;;;;;7.53;1.80;;;18.40;64.40;;;;;;4831069;29;20065;-84
2022/05/10 13:01:44;;;;;;;9.70;2.35;;;18.40;65.20;;;;;;4830431;29;20573;-77
2022/05/10 13:04:16;;;;;;;5.97;2.03;;;18.30;65.20;;;;;;4830598;29;20558;-78
2022/05/10 13:07:10;;;;;;;5.63;2.13;;;18.30;65.50;;;;;;4830824;29;20024;-82
2022/05/10 13:09:37;;;;;;;;;;;18.30;67.50;;;;;;4849695;29;20025;-82
2022/05/10 13:12:27;;;;;;;3.75;1.50;;;18.40;67.80;;;;;;4831541;29;19912;-80
2022/05/10 13:14:59;;;;;;;6.38;1.52;;;18.40;66.10;;;;;;4848462;29;20093;-84
2022/05/10 13:17:33;;;;;;;6.43;2.40;;;18.50;66.60;;;;;;4848712;29;20034;-81
2022/05/10 13:20:06;;;;;;;10.52;2.60;;;18.50;71.10;;;;;;4848434;29;20094;-75
2022/05/10 13:22:32;;;;;;;6.57;1.75;;;18.50;70.30;;;;;;4847477;29;20742;-78
2022/05/10 13:25:00;;;;;;;7.13;2.30;;;18.60;71.00;;;;;;4847965;29;20022;-78
2022/05/10 13:27:46;;;;;;;4.97;1.90;;;18.80;70.60;;;;;;4847669;29;20026;-78
2022/05/10 13:30:16;;;;;;;9.88;1.98;;;18.70;68.60;;;;;;4848471;29;20016;-79
2022/05/10 13:32:48;;;;;;;5.18;1.70;;;18.80;67.40;;;;;;4847943;29;20029;-80
2022/05/10 13:35:20;;;;;;;11.20;2.50;;;18.90;66.50;;;;;;4848137;29;20033;-78
2022/05/10 13:37:57;;;;;;;10.48;2.28;;;19.00;65.60;;;;;;4847737;29;20025;-81
2022/05/10 13:40:31;;;;;;;4.13;2.08;;;19.10;64.50;;;;;;4847909;29;20708;-78
2022/05/10 13:43:29;;;;;;;3.95;1.70;;;19.30;63.90;;;;;;4847319;29;20106;-80
2022/05/10 13:46:02;;;;;;;6.93;2.13;;;19.40;63.80;;;;;;4847653;29;20889;-80
2022/05/10 13:48:33;;;;;;;5.85;2.20;;;19.70;63.60;;;;;;4847827;29;20035;-75
2022/05/10 13:51:24;;;;;;;14.07;3.40;;;19.90;64.30;;;;;;4847468;29;20044;-79
2022/05/10 13:54:02;;;;;;;8.18;3.92;;;19.90;66.30;;;;;;4847678;29;20829;-78
2022/05/10 13:56:33;;;;;;;8.23;3.22;;;19.90;66.50;;;;;;4847504;29;20094;-79
2022/05/10 13:58:59;;;;;;;11.80;3.45;;;20.00;65.10;;;;;;4847782;29;20104;-81
2022/05/10 14:01:54;;;;;;;8.60;2.63;;;20.20;64.00;;;;;;4847938;29;20116;-77
2022/05/10 14:04:23;;;;;;;6.82;2.97;;;20.30;63.60;;;;;;4772029;29;20683;-78
2022/05/10 14:06:59;;;;;;;4.97;2.25;;;20.50;63.20;;;;;;4772262;29;20031;-81
2022/05/10 14:09:40;;;;;;;11.23;1.80;;;20.60;63.10;;;;;;4756775;30;20042;-76
2022/05/10 14:12:29;;;;;;;14.93;2.65;;;20.80;63.40;;;;;;4782211;29;20035;-78
2022/05/10 14:15:11;;;;;;;5.43;1.92;;;20.90;61.50;;;;;;4789994;29;20062;-79
2022/05/10 14:17:38;;;;;;;6.70;2.50;;;21.00;61.70;;;;;;4789942;29;20035;-79
2022/05/10 14:20:19;;;;;;;8.52;2.60;;;21.20;60.90;;;;;;4789901;29;20093;-78
2022/05/10 14:22:46;;;;;;;10.38;2.92;;;21.40;60.50;;;;;;4789507;29;20059;-79
2022/05/10 14:25:14;;;;;;;10.88;3.55;;;19.00;57.60;;;;;;4789913;29;20091;-79
2022/05/10 14:28:01;;;;;;;8.48;3.28;;;21.70;56.30;;;;;;4789835;29;20171;-80
2022/05/10 14:30:27;;;;;;;9.85;2.95;;;21.50;59.90;;;;;;4790075;29;20027;-79
2022/05/10 14:32:53;;;;;;;13.00;4.45;;;21.00;62.20;;;;;;4789798;29;20031;-79
2022/05/10 14:35:33;;;;;;;8.18;2.65;;;20.90;62.80;;;;;;4789939;29;20047;-80
2022/05/10 14:38:24;;;;;;;11.32;3.50;;;21.10;61.70;;;;;;4819894;23;20068;-79
2022/05/10 14:40:51;;;;;;;6.22;2.78;;;21.30;62.90;;;;;;4884347;29;20032;-80
2022/05/10 14:43:47;;;;;;;9.50;3.55;;;21.30;64.00;;;;;;4886754;29;20192;-80
2022/05/10 14:46:34;;;;;;;6.70;2.47;;;21.10;64.00;;;;;;4789880;29;20047;-87
2022/05/10 14:49:06;;;;;;;10.93;2.83;;;22.00;62.40;;;;;;4794462;29;20368;-79
2022/05/10 14:51:35;;;;;;;9.48;2.78;;;22.70;60.10;;;;;;4789577;29;20031;-78
2022/05/10 14:54:01;;;;;;;8.30;2.50;;;23.40;58.60;;;;;;4788450;29;20034;-79
2022/05/10 14:56:30;;;;;;;7.72;2.35;;;25.20;58.30;;;;;;4788498;29;20035;-80
2022/05/10 15:02:32;;;;;;;9.40;3.40;;;24.90;53.40;;;;;;4801722;29;20138;-81
2022/05/10 15:05:06;;;;;;;10.00;3.08;;;25.00;53.10;;;;;;4825359;29;20026;-80
2022/05/10 15:07:32;;;;;;;7.95;3.20;;;25.00;53.30;;;;;;4825103;29;20109;-79
2022/05/10 15:09:57;;;;;;;8.40;2.90;;;25.50;52.70;;;;;;4824252;29;20137;-79
2022/05/10 15:15:11;;;;;;;6.13;2.25;;;25.80;50.80;;;;;;4803421;29;20586;-80
2022/05/10 15:20:23;;;;;;;7.35;3.00;;;26.00;49.20;;;;;;4789096;29;20038;-79
2022/05/10 15:22:50;;;;;;;7.32;2.85;;;27.00;49.60;;;;;;4820647;29;20030;-78
2022/05/10 15:25:17;;;;;;;8.85;2.72;;;27.20;47.80;;;;;;4845980;29;20037;-80
2022/05/10 15:27:43;;;;;;;10.43;2.55;;;27.60;46.70;;;;;;4846287;29;20026;-79
2022/05/10 15:30:10;;;;;;;8.27;3.00;;;28.20;46.10;;;;;;4846390;29;20315;-79
2022/05/10 15:32:36;;;;;;;6.30;2.35;;;28.30;44.80;;;;;;4846026;29;20038;-78
2022/05/10 15:35:02;;;;;;;6.20;2.70;;;28.50;45.30;;;;;;4845863;29;20094;-77
2022/05/10 15:37:30;;;;;;;10.95;2.13;;;28.90;44.40;;;;;;4846246;29;20046;-79
2022/05/10 15:39:57;;;;;;;7.38;3.08;;;28.60;44.20;;;;;;4845963;29;20250;-77
2022/05/10 15:42:28;;;;;;;9.00;1.88;;;28.40;44.10;;;;;;4829099;29;20035;-78
2022/05/10 15:44:55;;;;;;;12.27;2.60;;;28.00;45.00;;;;;;4847363;29;20014;-77
2022/05/10 15:47:29;;;;;;;8.38;2.45;;;27.50;45.40;;;;;;4864317;29;20061;-77
2022/05/10 15:49:56;;;;;;;9.43;2.53;;;26.90;46.10;;;;;;4864174;29;20100;-77
2022/05/10 15:52:22;;;;;;;7.00;2.70;;;26.40;47.40;;;;;;4864332;29;20021;-80
2022/05/10 15:54:48;;;;;;;9.52;3.28;;;25.90;48.20;;;;;;4864460;29;20112;-82
2022/05/10 15:57:16;;;;;;;7.35;3.13;;;25.30;49.20;;;;;;4863941;29;20045;-78
2022/05/10 15:59:43;;;;;;;6.15;2.28;;;25.00;50.30;;;;;;4847854;29;20127;-80
2022/05/10 16:02:09;;;;;;;5.72;2.60;;;25.00;51.60;;;;;;4864569;29;20029;-82
2022/05/10 16:04:35;;;;;;;9.70;3.63;;;24.30;53.50;;;;;;4847878;29;20058;-78
2022/05/10 16:07:02;;;;;;;8.43;2.90;;;24.20;55.60;;;;;;4864141;29;20029;-79
2022/05/10 16:09:28;;;;;;;9.88;2.55;;;23.80;56.90;;;;;;4865886;29;20025;-76
2022/05/10 16:11:54;;;;;;;7.40;2.65;;;23.50;58.10;;;;;;4882775;29;20028;-79
2022/05/10 16:14:20;;;;;;;9.20;3.30;;;23.20;59.30;;;;;;4883032;29;20175;-76
2022/05/10 16:16:46;;;;;;;12.07;3.10;;;22.90;60.00;;;;;;4882995;29;20103;-76
2022/05/10 16:19:12;;;;;;;8.05;3.00;;;24.30;61.90;;;;;;4882666;29;20107;-76
2022/05/10 16:21:39;;;;;;;7.15;2.65;;;22.30;61.50;;;;;;4883004;29;20036;-78
2022/05/10 16:24:06;;;;;;;11.20;3.63;;;22.10;62.40;;;;;;4882943;29;20021;-76
2022/05/10 16:32:02;;;;;;;6.10;2.78;;;21.10;64.50;;;;;;4882513;29;20117;-74
2022/05/10 16:34:28;;;;;;;8.45;2.85;;;20.70;65.60;;;;;;4882655;29;20020;-78
2022/05/10 16:36:54;;;;;;;7.82;2.85;;;20.40;65.80;;;;;;4882671;29;20560;-78
2022/05/10 16:39:21;;;;;;;7.80;2.50;;;20.10;66.80;;;;;;4882527;29;20726;-79
2022/05/10 16:41:47;;;;;;;7.90;3.22;;;19.90;67.00;;;;;;4882508;29;20029;-76
2022/05/10 16:44:13;;;;;;;9.48;3.10;;;19.80;67.40;;;;;;4882629;29;20036;-78
2022/05/10 16:46:40;;;;;;;9.70;2.88;;;19.70;68.10;;;;;;4882447;29;20111;-80
2022/05/10 16:49:06;;;;;;;6.60;2.58;;;19.70;68.50;;;;;;4882876;29;20112;-75
2022/05/10 16:51:32;;;;;;;8.80;2.63;;;19.70;68.40;;;;;;4882392;29;20025;-76
2022/05/10 16:54:10;;;;;;;8.27;3.35;;;19.70;69.30;;;;;;4882163;29;20104;-74
2022/05/10 16:56:37;;;;;;;7.55;3.20;;;19.70;69.70;;;;;;4882421;29;20651;-75
2022/05/10 16:59:03;;;;;;;7.85;3.47;;;19.70;69.70;;;;;;4882410;29;20033;-76
2022/05/10 17:01:29;;;;;;;11.68;3.78;;;19.70;69.70;;;;;;4882317;29;20067;-79
2022/05/10 17:03:55;;;;;;;14.88;3.88;;;19.70;69.50;;;;;;4882569;29;20028;-77
2022/05/10 17:06:21;;;;;;;7.10;3.10;;;19.70;70.10;;;;;;4882097;29;20559;-76
2022/05/10 17:08:48;;;;;;;8.13;2.90;;;19.60;70.90;;;;;;4882201;29;20025;-80
2022/05/10 17:11:13;;;;;;;4.32;2.47;;;19.90;71.40;;;;;;4882183;29;20040;-75
2022/05/10 17:13:39;;;;;;;7.22;3.30;;;19.40;71.40;;;;;;4882205;29;20745;-74
2022/05/10 17:16:05;;;;;;;8.23;3.20;;;19.40;71.60;;;;;;4882381;29;20025;-79
2022/05/10 17:18:30;;;;;;;5.93;2.70;;;19.40;72.20;;;;;;4866897;29;20025;-75
2022/05/10 17:21:01;;;;;;;5.63;2.47;;;19.20;72.60;;;;;;4868289;29;20044;-75
2022/05/10 17:23:27;;;;;;;8.45;3.13;;;19.10;73.30;;;;;;4885491;29;20033;-74
2022/05/10 17:25:53;;;;;;;11.63;2.92;;;19.10;73.60;;;;;;4885720;29;20023;-75
2022/05/10 17:28:38;;;;;;;7.55;3.28;;;19.00;75.10;;;;;;4885339;29;20056;-74